Time;durP1;ratioP1;P1;durP2;ratioP2;P2;SDS_P1;SDS_P2;PMS_P1;PMS_P2;Temp;Humidity;BMP_temperature;BMP_pressure;BME280_temperature;BME280_humidity;BME280_pressure;Samples;Min_cycle;Max_cycle;Signal;HPM_P1;HPM_P2
2021/12/06 00:01:31;;;;;;;16.13;6.60;;;;;;;15.02;40.14;101132.91;4869276;29;20037;-76
2021/12/06 00:04:18;;;;;;;14.05;7.15;;;;;;;14.74;40.66;101133.41;4849083;29;20033;-74
2021/12/06 00:06:49;;;;;;;10.65;5.93;;;;;;;15.03;40.33;101123.50;4866668;29;20052;-79
2021/12/06 00:09:18;;;;;;;13.98;6.75;;;;;;;14.96;40.18;101126.78;4859517;29;20033;-83
2021/12/06 00:11:44;;;;;;;10.05;6.25;;;;;;;14.96;40.64;101113.84;4852448;29;20029;-74
2021/12/06 00:14:10;;;;;;;11.13;6.22;;;;;;;15.10;40.14;101112.78;4868298;29;20034;-88
2021/12/06 00:16:36;;;;;;;12.90;7.22;;;;;;;15.14;39.97;101105.47;4866917;29;20081;-73
2021/12/06 00:19:03;;;;;;;10.02;6.97;;;;;;;15.10;40.13;101097.06;4850362;29;20033;-74
2021/12/06 00:21:29;;;;;;;12.73;7.07;;;;;;;15.12;39.92;101088.50;4878884;29;20029;-85
2021/12/06 00:23:55;;;;;;;10.45;7.30;;;;;;;15.05;39.93;101077.22;4873081;29;20021;-74
2021/12/06 00:26:21;;;;;;;16.13;6.93;;;;;;;15.25;39.45;101070.88;4868285;29;20032;-88
2021/12/06 00:28:49;;;;;;;12.25;6.13;;;;;;;15.24;39.48;101070.09;4870660;29;20029;-75
2021/12/06 00:31:15;;;;;;;10.50;6.88;;;;;;;15.33;39.30;101064.50;4870593;29;20025;-84
2021/12/06 00:33:42;;;;;;;10.15;6.43;;;;;;;15.41;39.11;101065.56;4868286;29;20033;-74
2021/12/06 00:36:16;;;;;;;11.00;6.38;;;;;;;15.48;39.14;101058.38;4865992;29;20528;-75
2021/12/06 00:38:47;;;;;;;12.15;6.47;;;;;;;15.32;39.20;101059.34;4868685;29;20481;-83
2021/12/06 00:41:13;;;;;;;11.75;5.97;;;;;;;15.52;38.77;101047.50;4866879;29;20025;-84
2021/12/06 00:43:39;;;;;;;7.82;5.63;;;;;;;15.44;38.88;101046.44;4874144;29;20037;-74
2021/12/06 00:46:04;;;;;;;12.68;6.60;;;;;;;15.49;38.56;101037.97;4873145;29;20093;-74
2021/12/06 00:48:30;;;;;;;11.13;5.22;;;;;;;15.52;38.40;101037.28;4870031;29;20076;-88
2021/12/06 00:50:56;;;;;;;10.82;5.75;;;;;;;15.47;38.58;101036.69;4875083;29;20684;-74
2021/12/06 00:53:21;;;;;;;10.32;5.90;;;;;;;15.52;38.47;101030.97;4870390;29;20504;-87
2021/12/06 00:55:47;;;;;;;10.43;6.38;;;;;;;15.41;38.40;101030.56;4874493;29;20073;-88
2021/12/06 00:58:13;;;;;;;8.15;5.10;;;;;;;15.45;38.73;101031.53;4869233;29;20034;-88
2021/12/06 01:00:45;;;;;;;11.40;6.40;;;;;;;15.55;38.05;101028.34;4879703;29;20025;-74
2021/12/06 01:03:14;;;;;;;10.30;5.43;;;;;;;15.56;38.29;101020.88;4854889;29;20369;-74
2021/12/06 01:05:40;;;;;;;8.63;5.75;;;;;;;15.44;38.42;101012.59;4871780;29;20038;-74
2021/12/06 01:08:07;;;;;;;10.55;5.53;;;;;;;15.34;38.84;101005.56;4871434;29;20033;-74
2021/12/06 01:10:34;;;;;;;8.48;5.22;;;;;;;15.46;38.25;100993.78;4866796;29;20127;-75
2021/12/06 01:13:00;;;;;;;10.18;5.35;;;;;;;15.51;38.29;100999.06;4874288;29;20476;-74
2021/12/06 01:15:27;;;;;;;7.90;5.22;;;;;;;15.57;38.10;100996.88;4871470;29;20029;-75
2021/12/06 01:17:53;;;;;;;9.82;5.35;;;;;;;15.57;38.00;100989.47;4874493;29;20040;-88
2021/12/06 01:20:23;;;;;;;10.05;4.97;;;;;;;15.46;38.41;100986.31;4871829;29;20093;-74
2021/12/06 01:28:36;;;;;;;7.35;3.70;;;;;;;15.51;38.04;100966.84;4861500;29;20041;-88
2021/12/06 01:31:12;;;;;;;8.15;3.67;;;;;;;15.37;38.26;100968.28;4873066;29;20116;-74
2021/12/06 01:39:18;;;;;;;7.28;3.08;;;;;;;15.71;37.82;100956.09;4871565;29;20040;-75
2021/12/06 01:41:58;;;;;;;5.80;2.97;;;;;;;15.69;37.88;100947.38;4850077;29;20044;-74
2021/12/06 01:44:27;;;;;;;9.32;2.97;;;;;;;15.43;38.59;100939.38;4874305;29;20036;-75
2021/12/06 01:46:58;;;;;;;4.07;2.15;;;;;;;15.50;38.44;100947.91;4863199;29;20041;-75
2021/12/06 01:49:26;;;;;;;6.35;2.40;;;;;;;15.45;38.86;100932.38;4856334;29;20014;-74
2021/12/06 01:51:55;;;;;;;7.47;2.60;;;;;;;15.72;38.44;100925.47;4868748;29;20088;-74
2021/12/06 01:54:21;;;;;;;8.00;2.42;;;;;;;15.40;38.80;100907.81;4880854;29;20488;-76
2021/12/06 01:56:48;;;;;;;5.57;2.25;;;;;;;15.67;38.27;100906.41;4881051;29;20041;-76
2021/12/06 01:59:14;;;;;;;7.03;2.33;;;;;;;15.69;38.47;100892.28;4881084;29;20033;-76
2021/12/06 02:01:41;;;;;;;4.35;2.80;;;;;;;15.61;38.55;100882.97;4881631;29;20507;-81
2021/12/06 02:04:07;;;;;;;4.35;1.92;;;;;;;15.68;38.39;100871.41;4881757;29;20028;-87
2021/12/06 02:06:33;;;;;;;5.30;2.20;;;;;;;15.52;38.69;100872.06;4852753;29;20064;-88
2021/12/06 02:08:59;;;;;;;6.53;1.70;;;;;;;15.40;39.15;100860.22;4881429;29;20025;-74
2021/12/06 02:11:27;;;;;;;4.80;1.90;;;;;;;15.34;39.19;100865.16;4881500;29;20093;-89
2021/12/06 02:14:05;;;;;;;5.88;2.08;;;;;;;15.31;39.38;100857.56;4874030;29;20057;-88
2021/12/06 02:16:40;;;;;;;5.10;2.05;;;;;;;15.24;39.70;100851.81;4881444;29;20053;-89
2021/12/06 02:19:06;;;;;;;6.68;1.83;;;;;;;15.24;40.09;100860.06;4881133;29;20033;-74
2021/12/06 02:21:40;;;;;;;5.50;1.58;;;;;;;15.36;39.66;100851.84;4864840;29;20056;-88
2021/12/06 02:24:09;;;;;;;6.07;1.73;;;;;;;15.19;40.15;100847.34;4864659;29;20056;-74
2021/12/06 02:26:36;;;;;;;2.70;1.60;;;;;;;15.16;39.95;100838.97;4876604;29;20029;-74
2021/12/06 02:29:06;;;;;;;3.85;1.67;;;;;;;15.23;39.98;100820.72;4881015;29;20073;-74
2021/12/06 02:31:32;;;;;;;7.18;1.60;;;;;;;15.21;40.04;100822.22;4880671;29;20062;-74
2021/12/06 02:33:57;;;;;;;8.88;1.95;;;;;;;15.07;40.54;100813.50;4863811;29;20465;-74
2021/12/06 02:36:26;;;;;;;5.90;1.98;;;;;;;15.17;40.10;100800.06;4880544;29;20017;-74
2021/12/06 02:38:51;;;;;;;4.03;1.80;;;;;;;15.09;40.56;100797.44;4880425;29;20036;-74
2021/12/06 02:41:18;;;;;;;3.55;1.60;;;;;;;14.97;40.85;100798.22;4880466;29;20446;-87
2021/12/06 02:43:44;;;;;;;5.28;2.00;;;;;;;15.08;40.83;100787.56;4880353;29;20085;-74
2021/12/06 02:46:10;;;;;;;7.45;1.67;;;;;;;15.08;40.70;100777.38;4880165;29;20025;-74
2021/12/06 02:48:36;;;;;;;4.75;1.70;;;;;;;14.83;41.68;100773.78;4878468;29;20040;-74
2021/12/06 02:51:05;;;;;;;6.40;1.95;;;;;;;15.07;40.97;100770.25;4878511;29;20533;-74
2021/12/06 02:53:32;;;;;;;7.25;1.55;;;;;;;15.15;40.72;100763.03;4860376;29;20054;-74
2021/12/06 02:56:04;;;;;;;2.72;1.70;;;;;;;15.13;41.15;100766.16;4861269;29;20545;-74
2021/12/06 03:01:19;;;;;;;5.63;1.58;;;;;;;14.93;41.75;100748.56;4861835;29;20588;-74
2021/12/06 03:03:45;;;;;;;3.83;1.60;;;;;;;15.11;41.33;100737.34;4861750;29;20081;-74
2021/12/06 03:06:13;;;;;;;5.05;1.85;;;;;;;15.16;41.12;100731.63;4861721;29;20033;-74
2021/12/06 03:09:13;;;;;;;5.30;1.50;;;;;;;15.13;41.44;100719.34;4861439;29;20078;-74
2021/12/06 03:11:44;;;;;;;;;;;;;;;15.08;41.59;100699.50;4859307;29;20386;-74
2021/12/06 03:14:12;;;;;;;4.80;1.30;;;;;;;15.07;41.50;100700.66;4861523;29;19991;-74
2021/12/06 03:16:39;;;;;;;4.32;1.58;;;;;;;15.18;41.40;100690.78;4861473;29;20057;-73
2021/12/06 03:19:06;;;;;;;6.43;1.70;;;;;;;15.12;41.63;100678.44;4861311;29;20033;-74
2021/12/06 03:21:32;;;;;;;7.38;1.70;;;;;;;15.16;41.82;100666.38;4861402;29;20025;-74
2021/12/06 03:23:58;;;;;;;6.13;1.85;;;;;;;15.15;41.75;100658.47;4861386;29;20049;-73
2021/12/06 03:26:25;;;;;;;9.45;1.88;;;;;;;14.97;42.42;100653.22;4861392;29;20064;-73
2021/12/06 03:28:52;;;;;;;5.88;1.85;;;;;;;15.08;42.30;100653.53;4861281;29;20026;-74
2021/12/06 03:31:19;;;;;;;5.57;1.30;;;;;;;15.04;42.48;100652.63;4861336;29;20481;-74
2021/12/06 03:33:49;;;;;;;8.95;2.33;;;;;;;15.06;42.62;100647.59;4861280;29;20036;-74
2021/12/06 03:36:16;;;;;;;;;;;;;;;14.98;43.15;100637.50;4861572;29;20049;-74
2021/12/06 03:38:42;;;;;;;6.80;1.98;;;;;;;15.15;42.44;100628.19;4861144;29;20339;-74
2021/12/06 03:41:10;;;;;;;7.97;1.88;;;;;;;15.05;43.21;100621.22;4859809;29;20049;-74
2021/12/06 03:43:36;;;;;;;4.63;1.52;;;;;;;15.09;42.95;100616.59;4859763;29;20038;-74
2021/12/06 03:46:02;;;;;;;5.05;1.95;;;;;;;15.02;43.38;100610.88;4861300;29;20053;-74
2021/12/06 03:48:28;;;;;;;5.00;1.60;;;;;;;15.08;43.36;100615.00;4861035;29;20433;-74
2021/12/06 03:50:54;;;;;;;8.13;1.90;;;;;;;15.29;43.04;100605.81;4861052;29;20057;-74
2021/12/06 03:53:20;;;;;;;5.05;1.98;;;;;;;15.50;42.52;100603.69;4865200;29;20056;-74
2021/12/06 03:55:46;;;;;;;7.60;1.90;;;;;;;15.53;42.65;100603.78;4879066;29;20088;-74
2021/12/06 03:58:11;;;;;;;6.45;1.90;;;;;;;15.36;43.10;100612.31;4879241;29;20040;-73
2021/12/06 04:00:37;;;;;;;4.13;1.88;;;;;;;15.54;42.55;100583.34;4879313;29;20025;-73
2021/12/06 04:03:04;;;;;;;6.13;2.10;;;;;;;15.55;42.88;100582.19;4879271;29;20485;-73
2021/12/06 04:05:30;;;;;;;5.20;1.85;;;;;;;15.51;43.20;100570.28;4879289;29;20029;-73
2021/12/06 04:07:55;;;;;;;6.32;1.90;;;;;;;15.63;42.79;100546.63;4879195;29;20567;-74
2021/12/06 04:10:25;;;;;;;6.15;1.90;;;;;;;15.63;43.12;100530.09;4879312;29;20037;-74
2021/12/06 04:12:51;;;;;;;3.28;1.30;;;;;;;15.68;43.09;100533.41;4862424;29;20494;-73
2021/12/06 04:15:17;;;;;;;1.08;0.85;;;;;;;15.50;43.83;100541.16;4879167;29;20072;-73
2021/12/06 04:17:43;;;;;;;4.15;1.40;;;;;;;15.78;43.13;100541.13;4879001;29;20104;-74
2021/12/06 04:20:11;;;;;;;4.40;1.30;;;;;;;15.86;43.18;100533.88;4878670;29;20086;-74
2021/12/06 04:22:37;;;;;;;1.20;1.10;;;;;;;15.78;43.33;100519.09;4862422;29;20035;-73
2021/12/06 04:25:07;;;;;;;1.00;0.60;;;;;;;15.94;43.24;100519.13;4878996;29;20036;-73
2021/12/06 04:27:32;;;;;;;0.73;0.63;;;;;;;15.83;43.83;100515.31;4878989;29;20029;-74
2021/12/06 04:29:58;;;;;;;1.85;0.52;;;;;;;15.86;43.55;100528.34;4878995;29;20117;-73
2021/12/06 04:32:24;;;;;;;1.02;0.50;;;;;;;16.07;43.15;100528.13;4878918;29;20025;-74
2021/12/06 04:34:50;;;;;;;2.30;0.60;;;;;;;15.94;43.63;100532.09;4878898;29;20036;-74
2021/12/06 04:37:16;;;;;;;0.60;0.52;;;;;;;15.73;44.29;100524.09;4878918;29;20107;-73
2021/12/06 04:39:42;;;;;;;3.67;0.98;;;;;;;16.03;43.50;100532.75;4878750;29;20025;-74
2021/12/06 04:42:09;;;;;;;1.83;0.60;;;;;;;16.03;43.47;100513.47;4878860;29;20025;-74
2021/12/06 04:44:35;;;;;;;2.83;0.95;;;;;;;15.96;43.73;100497.53;4878808;29;20036;-73
2021/12/06 04:47:02;;;;;;;1.75;0.65;;;;;;;16.00;43.59;100501.16;4878820;29;20053;-74
2021/12/06 04:49:29;;;;;;;2.00;0.70;;;;;;;15.96;43.86;100514.06;4878777;29;20445;-74
2021/12/06 04:51:57;;;;;;;2.45;0.60;;;;;;;16.03;43.76;100494.16;4878826;29;20044;-84
2021/12/06 04:54:28;;;;;;;3.33;0.63;;;;;;;15.96;43.87;100481.00;4878603;29;20052;-74
2021/12/06 04:57:09;;;;;;;3.25;0.85;;;;;;;15.88;43.99;100470.97;4878780;29;20060;-73
2021/12/06 04:59:39;;;;;;;1.15;0.52;;;;;;;16.00;43.48;100468.09;4878688;29;20084;-74
2021/12/06 05:02:14;;;;;;;1.80;0.80;;;;;;;15.84;44.17;100470.06;4862006;29;20441;-73
2021/12/06 05:04:47;;;;;;;3.17;1.45;;;;;;;15.96;43.67;100482.97;4880572;29;20029;-74
2021/12/06 05:07:21;;;;;;;1.58;0.70;;;;;;;15.98;43.89;100486.16;4877828;29;20045;-74
2021/12/06 05:09:47;;;;;;;2.25;0.93;;;;;;;16.01;43.79;100464.19;4878598;29;20424;-74
2021/12/06 05:12:16;;;;;;;2.65;1.00;;;;;;;16.08;43.97;100469.06;4878605;29;20029;-74
2021/12/06 05:14:42;;;;;;;1.98;0.77;;;;;;;16.11;43.83;100456.56;4878505;29;20111;-73
2021/12/06 05:17:08;;;;;;;3.72;1.05;;;;;;;16.17;43.63;100441.31;4878592;29;20112;-74
2021/12/06 05:19:34;;;;;;;1.45;0.80;;;;;;;16.21;43.72;100439.47;4878412;29;20044;-73
2021/12/06 05:22:00;;;;;;;3.08;0.95;;;;;;;16.22;43.95;100446.56;4861816;29;20036;-74
2021/12/06 05:24:25;;;;;;;4.30;1.25;;;;;;;16.30;43.69;100438.13;4878478;29;20393;-74
2021/12/06 05:26:51;;;;;;;3.40;0.90;;;;;;;16.27;43.97;100438.03;4878478;29;20029;-73
2021/12/06 05:29:24;;;;;;;1.48;0.80;;;;;;;16.25;44.04;100432.91;4878529;29;20459;-74
2021/12/06 05:31:55;;;;;;;2.20;0.98;;;;;;;16.07;44.44;100437.97;4879413;29;20033;-74
2021/12/06 05:34:29;;;;;;;2.60;1.00;;;;;;;16.16;44.52;100436.97;4881868;29;20032;-74
2021/12/06 05:36:54;;;;;;;4.28;1.23;;;;;;;16.17;44.70;100446.84;4881861;29;20081;-73
2021/12/06 05:39:20;;;;;;;9.60;1.55;;;;;;;16.15;45.14;100449.16;4881743;29;20041;-74
2021/12/06 05:41:45;;;;;;;2.85;1.00;;;;;;;16.20;44.93;100448.91;4881825;29;20424;-73
2021/12/06 05:44:11;;;;;;;5.65;1.58;;;;;;;16.25;44.88;100452.19;4881759;29;20029;-73
2021/12/06 05:46:37;;;;;;;2.97;1.38;;;;;;;16.22;45.25;100449.34;4881740;29;20085;-73
2021/12/06 05:49:03;;;;;;;5.55;1.98;;;;;;;15.59;47.39;100452.88;4881717;29;20107;-73
2021/12/06 05:51:29;;;;;;;5.18;1.20;;;;;;;15.66;47.49;100446.78;4881687;29;20420;-73
2021/12/06 05:53:55;;;;;;;2.88;1.45;;;;;;;16.22;45.80;100439.09;4881422;29;20048;-73
2021/12/06 05:56:21;;;;;;;10.05;1.80;;;;;;;16.29;45.66;100435.72;4881630;29;20043;-73
2021/12/06 05:58:48;;;;;;;3.80;1.20;;;;;;;16.40;45.46;100425.75;4881379;29;20036;-73
2021/12/06 06:01:14;;;;;;;3.17;0.90;;;;;;;16.38;45.61;100419.78;4881413;29;20033;-73
2021/12/06 06:03:39;;;;;;;2.55;1.25;;;;;;;16.60;45.19;100408.03;4881355;29;20028;-73
2021/12/06 06:06:05;;;;;;;5.57;1.33;;;;;;;16.57;45.00;100410.75;4881345;29;20111;-73
2021/12/06 06:08:31;;;;;;;11.02;2.00;;;;;;;16.49;45.52;100411.75;4881232;29;20043;-73
2021/12/06 06:10:57;;;;;;;6.88;1.35;;;;;;;16.53;45.47;100413.41;4881510;29;20025;-73
2021/12/06 06:13:23;;;;;;;6.18;1.38;;;;;;;16.60;45.21;100401.72;4881220;29;20033;-90
2021/12/06 06:15:51;;;;;;;1.30;0.70;;;;;;;16.81;44.73;100395.91;4881186;29;20044;-73
2021/12/06 06:18:18;;;;;;;7.68;1.35;;;;;;;16.85;44.72;100397.59;4881110;29;20045;-73
2021/12/06 06:20:53;;;;;;;8.23;1.80;;;;;;;16.74;45.09;100390.25;4881106;29;20029;-73
2021/12/06 06:23:18;;;;;;;3.35;1.40;;;;;;;16.82;44.60;100386.47;4880778;29;20036;-73
2021/12/06 06:25:44;;;;;;;5.75;1.80;;;;;;;16.70;44.86;100376.38;4879394;29;20037;-73
2021/12/06 06:28:10;;;;;;;6.55;2.58;;;;;;;16.65;44.69;100371.13;4880205;29;20033;-73
2021/12/06 06:30:36;;;;;;;4.50;1.50;;;;;;;16.64;44.54;100370.31;4881045;29;20084;-73
2021/12/06 06:33:03;;;;;;;7.57;2.00;;;;;;;16.55;44.71;100372.50;4880524;29;20033;-73
2021/12/06 06:35:30;;;;;;;6.30;1.75;;;;;;;16.50;44.66;100372.78;4880880;29;20437;-73
2021/12/06 06:37:56;;;;;;;3.92;1.60;;;;;;;16.41;44.70;100372.19;4880694;29;20073;-73
2021/12/06 06:40:22;;;;;;;5.90;2.00;;;;;;;16.35;44.76;100370.88;4880792;29;20063;-73
2021/12/06 06:42:48;;;;;;;7.43;1.80;;;;;;;16.25;44.71;100390.75;4880704;29;20021;-73
2021/12/06 06:45:17;;;;;;;7.00;3.05;;;;;;;16.06;45.39;100384.00;4880046;29;20033;-73
2021/12/06 06:47:43;;;;;;;7.45;2.88;;;;;;;16.04;45.28;100383.56;4880871;29;20461;-73
2021/12/06 06:50:09;;;;;;;6.75;2.30;;;;;;;16.02;45.18;100371.28;4880630;29;20049;-73
2021/12/06 06:52:35;;;;;;;4.13;1.63;;;;;;;16.07;45.05;100374.56;4880742;29;20048;-74
2021/12/06 06:55:04;;;;;;;5.30;1.92;;;;;;;15.99;45.36;100374.78;4860517;29;20053;-72
2021/12/06 06:57:30;;;;;;;4.35;2.00;;;;;;;15.93;45.80;100377.00;4860653;29;20029;-73
2021/12/06 06:59:56;;;;;;;7.00;3.42;;;;;;;15.99;45.51;100378.31;4861737;29;20041;-73
2021/12/06 07:02:21;;;;;;;7.78;2.70;;;;;;;15.94;45.60;100375.84;4861907;29;20043;-73
2021/12/06 07:04:48;;;;;;;12.60;3.33;;;;;;;16.14;45.03;100371.19;4861691;29;20038;-73
2021/12/06 07:07:13;;;;;;;9.52;2.03;;;;;;;16.08;45.17;100376.16;4861811;29;20390;-73
2021/12/06 07:09:42;;;;;;;5.43;1.90;;;;;;;15.97;45.31;100377.91;4860588;29;20112;-73
2021/12/06 07:12:15;;;;;;;8.02;2.33;;;;;;;16.12;44.78;100375.47;4861811;29;20033;-73
2021/12/06 07:14:42;;;;;;;11.23;2.65;;;;;;;16.04;45.18;100378.06;4861603;29;20033;-72
2021/12/06 07:17:07;;;;;;;9.25;2.40;;;;;;;15.95;45.73;100382.97;4861623;29;20378;-73
2021/12/06 07:19:33;;;;;;;9.50;3.20;;;;;;;15.73;46.11;100383.63;4861445;29;20048;-73
2021/12/06 07:21:58;;;;;;;12.63;2.92;;;;;;;15.53;46.52;100394.50;4861446;29;20121;-73
2021/12/06 07:24:25;;;;;;;9.27;3.60;;;;;;;15.63;46.49;100392.38;4860028;29;20191;-73
2021/12/06 07:26:51;;;;;;;9.80;2.22;;;;;;;15.58;46.16;100398.16;4861436;29;20040;-73
2021/12/06 07:29:17;;;;;;;10.48;1.95;;;;;;;15.56;46.60;100401.25;4861533;29;20038;-73
2021/12/06 07:31:42;;;;;;;10.38;3.08;;;;;;;15.59;46.23;100408.81;4861408;29;20037;-73
2021/12/06 07:34:08;;;;;;;7.55;2.58;;;;;;;15.84;45.55;100398.44;4861334;29;20053;-73
2021/12/06 07:36:34;;;;;;;15.65;2.80;;;;;;;15.90;45.34;100388.75;4861408;29;20034;-73
2021/12/06 07:38:59;;;;;;;7.78;2.33;;;;;;;15.89;45.45;100387.16;4860980;29;20051;-78
2021/12/06 07:41:28;;;;;;;15.70;3.97;;;;;;;15.96;45.23;100390.06;4861117;29;20043;-76
2021/12/06 07:43:56;;;;;;;11.05;3.13;;;;;;;16.02;45.00;100387.81;4861103;29;20125;-75
2021/12/06 07:46:22;;;;;;;15.05;3.53;;;;;;;15.94;45.03;100386.84;4860778;29;20033;-76
2021/12/06 07:48:52;;;;;;;8.23;2.47;;;;;;;15.79;45.72;100380.25;4860058;29;20030;-76
2021/12/06 07:51:22;;;;;;;11.05;2.90;;;;;;;15.79;45.87;100377.47;4860957;29;20108;-92
2021/12/06 07:53:48;;;;;;;10.07;2.03;;;;;;;15.74;45.94;100380.50;4863724;29;20056;-74
2021/12/06 07:56:13;;;;;;;10.55;2.60;;;;;;;15.68;45.79;100379.16;4851380;29;20046;-93
2021/12/06 07:58:39;;;;;;;18.17;3.20;;;;;;;15.81;45.55;100382.63;4868657;29;20116;-75
2021/12/06 08:01:05;;;;;;;17.58;3.38;;;;;;;15.80;45.41;100386.53;4869338;29;20029;-74
2021/12/06 08:03:32;;;;;;;14.18;4.32;;;;;;;15.71;45.56;100374.88;4870484;29;20064;-74
2021/12/06 08:05:58;;;;;;;10.93;3.25;;;;;;;15.65;45.95;100387.34;4869036;29;20108;-74
2021/12/06 08:08:29;;;;;;;14.88;3.45;;;;;;;15.67;45.79;100376.78;4868690;29;20485;-74
2021/12/06 08:11:02;;;;;;;13.75;3.22;;;;;;;15.74;45.60;100371.44;4858929;29;20488;-73
2021/12/06 08:13:30;;;;;;;13.35;2.60;;;;;;;15.46;46.48;100365.97;4859243;29;20060;-73
2021/12/06 08:16:01;;;;;;;17.65;3.85;;;;;;;15.70;45.85;100356.75;4861704;29;20029;-75
2021/12/06 08:18:26;;;;;;;11.63;2.80;;;;;;;15.57;45.87;100355.22;4845021;29;20064;-75
2021/12/06 08:20:52;;;;;;;14.02;3.55;;;;;;;15.47;46.28;100370.31;4854924;29;20346;-75
2021/12/06 08:23:18;;;;;;;14.75;3.95;;;;;;;15.27;46.70;100366.69;4845338;29;20401;-75
2021/12/06 08:25:47;;;;;;;12.30;2.78;;;;;;;15.45;45.98;100369.91;4828482;29;20037;-75
2021/12/06 08:28:15;;;;;;;18.63;3.33;;;;;;;15.51;45.87;100366.53;4844664;29;20116;-75
2021/12/06 08:30:41;;;;;;;13.68;3.15;;;;;;;15.50;46.12;100372.41;4844769;29;20026;-75
2021/12/06 08:33:07;;;;;;;16.02;3.10;;;;;;;15.57;46.10;100382.75;4844189;29;20061;-75
2021/12/06 08:35:39;;;;;;;15.77;4.63;;;;;;;15.34;46.41;100397.16;4844774;29;20663;-75
2021/12/06 08:38:06;;;;;;;18.05;3.38;;;;;;;14.94;47.29;100388.97;4843938;29;20044;-73
2021/12/06 08:40:33;;;;;;;7.88;3.10;;;;;;;15.00;47.46;100382.06;4851430;29;20667;-95
2021/12/06 08:42:59;;;;;;;14.07;2.53;;;;;;;14.40;48.65;100373.66;4860442;29;20017;-74
2021/12/06 08:45:27;;;;;;;9.48;2.05;;;;;;;14.80;47.05;100359.13;4860809;29;20038;-74
2021/12/06 08:47:53;;;;;;;10.75;1.95;;;;;;;14.87;46.37;100353.81;4860030;29;20029;-75
2021/12/06 08:50:22;;;;;;;11.57;2.47;;;;;;;14.41;46.40;100360.72;4863441;29;20040;-80
2021/12/06 08:52:49;;;;;;;4.53;1.63;;;;;;;14.34;45.84;100361.31;4867755;29;20421;-74
2021/12/06 08:55:16;;;;;;;3.97;1.30;;;;;;;14.67;44.46;100341.88;4874869;29;20291;-76
2021/12/06 08:57:42;;;;;;;6.63;1.38;;;;;;;14.68;44.28;100343.47;4861785;29;20065;-76
2021/12/06 09:00:13;;;;;;;7.05;1.63;;;;;;;15.01;43.24;100355.34;4847232;29;20044;-74
2021/12/06 09:02:39;;;;;;;5.13;1.73;;;;;;;15.03;43.11;100351.09;4863350;29;20652;-80
2021/12/06 09:05:06;;;;;;;5.88;1.55;;;;;;;15.22;42.54;100350.44;4847779;29;20036;-74
2021/12/06 09:07:32;;;;;;;7.35;1.52;;;;;;;15.11;42.43;100360.34;4863602;29;20476;-74
2021/12/06 09:09:59;;;;;;;6.03;1.30;;;;;;;15.12;42.41;100362.75;4865554;29;20128;-74
2021/12/06 09:12:27;;;;;;;2.13;0.95;;;;;;;14.78;42.20;100360.63;4850178;29;20584;-74
2021/12/06 09:14:55;;;;;;;5.53;1.33;;;;;;;14.83;41.83;100368.63;4865691;29;20065;-74
2021/12/06 09:17:21;;;;;;;3.95;1.00;;;;;;;14.90;42.28;100366.88;4866306;29;20033;-74
2021/12/06 09:19:47;;;;;;;6.30;1.45;;;;;;;14.94;41.67;100366.97;4881753;29;20100;-74
2021/12/06 09:22:13;;;;;;;9.95;2.10;;;;;;;14.98;41.78;100374.19;4880645;29;20095;-74
2021/12/06 09:24:39;;;;;;;4.93;1.95;;;;;;;15.01;41.44;100374.63;4880209;29;20060;-74
2021/12/06 09:27:07;;;;;;;3.75;1.30;;;;;;;14.84;41.50;100370.22;4880282;29;20044;-74
2021/12/06 09:29:36;;;;;;;6.50;1.33;;;;;;;15.13;41.14;100366.31;4877316;29;20025;-75
2021/12/06 09:32:04;;;;;;;8.35;2.47;;;;;;;15.08;41.17;100378.38;4862198;29;20034;-74
2021/12/06 09:34:31;;;;;;;5.22;1.60;;;;;;;15.19;41.05;100375.91;4880913;29;20029;-74
2021/12/06 09:36:58;;;;;;;5.25;1.90;;;;;;;15.14;41.10;100370.66;4881414;29;20025;-74
2021/12/06 09:39:24;;;;;;;3.88;1.30;;;;;;;15.22;40.99;100355.94;4882122;29;20112;-92
2021/12/06 09:41:51;;;;;;;9.10;1.80;;;;;;;15.30;40.87;100363.22;4881801;29;20472;-93
2021/12/06 09:44:17;;;;;;;8.30;2.55;;;;;;;15.27;41.01;100352.94;4882451;29;20029;-95
2021/12/06 09:46:43;;;;;;;6.45;1.60;;;;;;;15.26;41.13;100352.13;4881740;29;20096;-72
2021/12/06 09:49:13;;;;;;;10.85;1.77;;;;;;;15.22;41.15;100345.72;4881167;29;20056;-75
2021/12/06 09:51:41;;;;;;;5.57;1.35;;;;;;;15.19;41.32;100345.66;4873644;29;20033;-75
2021/12/06 09:54:09;;;;;;;5.00;1.70;;;;;;;15.26;41.41;100345.81;4875815;29;20561;-75
2021/12/06 09:56:39;;;;;;;8.05;1.45;;;;;;;15.11;41.68;100349.34;4852306;29;20089;-75
2021/12/06 09:59:06;;;;;;;;;;;;;;;15.09;41.87;100346.94;4872777;29;20033;-75
2021/12/06 10:01:39;;;;;;;7.97;1.58;;;;;;;15.23;41.71;100357.53;4870359;29;19920;-83
2021/12/06 10:04:08;;;;;;;4.55;1.38;;;;;;;15.36;41.67;100352.75;4866234;29;20057;-75
2021/12/06 10:06:34;;;;;;;10.90;1.77;;;;;;;15.40;41.56;100354.44;4878030;29;20080;-75
2021/12/06 10:09:03;;;;;;;5.00;1.88;;;;;;;15.37;41.67;100363.41;4881166;29;20028;-73
2021/12/06 10:11:29;;;;;;;9.38;3.53;;;;;;;15.31;42.19;100348.31;4880991;29;20025;-73
2021/12/06 10:13:55;;;;;;;7.82;2.28;;;;;;;15.35;42.27;100351.16;4881089;29;20428;-73
2021/12/06 10:16:22;;;;;;;6.97;1.95;;;;;;;15.26;42.57;100352.13;4881243;29;20056;-73
2021/12/06 10:18:48;;;;;;;63.17;36.67;;;;;;;15.32;42.68;100344.38;4880177;29;20052;-75
2021/12/06 10:21:14;;;;;;;16.88;3.40;;;;;;;14.88;43.64;100336.16;4871946;29;20480;-73
2021/12/06 10:23:42;;;;;;;53.47;30.10;;;;;;;15.21;43.17;100333.13;4872194;29;20036;-74
2021/12/06 10:26:12;;;;;;;8.18;2.45;;;;;;;15.23;43.11;100327.25;4874735;29;20025;-74
2021/12/06 10:28:41;;;;;;;24.35;14.63;;;;;;;15.23;43.27;100322.53;4863015;29;20434;-74
2021/12/06 10:31:10;;;;;;;12.00;2.90;;;;;;;15.37;42.94;100326.81;4845874;29;20033;-73
2021/12/06 10:33:40;;;;;;;14.40;4.55;;;;;;;15.15;43.47;100333.72;4862143;29;20752;-74
2021/12/06 10:36:10;;;;;;;11.50;3.15;;;;;;;15.38;43.13;100318.19;4860049;29;20029;-74
2021/12/06 10:38:39;;;;;;;12.20;2.80;;;;;;;15.35;42.79;100316.16;4847008;29;20037;-74
2021/12/06 10:41:08;;;;;;;13.75;2.50;;;;;;;15.14;43.20;100318.38;4845513;29;20037;-74
2021/12/06 10:43:35;;;;;;;10.95;2.15;;;;;;;15.54;42.77;100331.97;4846158;29;20034;-73
2021/12/06 10:46:03;;;;;;;6.40;2.13;;;;;;;15.71;42.09;100325.31;4845447;29;20120;-75
2021/12/06 10:48:31;;;;;;;10.70;2.70;;;;;;;15.66;42.34;100331.09;4846796;29;20033;-74
2021/12/06 10:51:05;;;;;;;17.50;4.55;;;;;;;15.80;41.96;100329.50;4844759;29;20029;-73
2021/12/06 10:53:43;;;;;;;8.02;3.33;;;;;;;15.39;42.96;100322.53;4851766;29;20049;-73
2021/12/06 10:56:20;;;;;;;11.65;3.63;;;;;;;15.65;42.40;100335.03;4868374;29;20029;-72
2021/12/06 10:58:50;;;;;;;15.82;2.90;;;;;;;16.01;41.71;100336.63;4860278;29;20033;-72
2021/12/06 11:01:24;;;;;;;12.45;3.22;;;;;;;16.08;41.60;100334.84;4880139;29;20029;-72
2021/12/06 11:03:52;;;;;;;9.95;2.33;;;;;;;15.76;42.33;100328.59;4862613;29;20437;-73
2021/12/06 11:06:26;;;;;;;8.35;2.22;;;;;;;15.67;42.41;100339.00;4879812;29;20025;-82
2021/12/06 11:08:55;;;;;;;11.10;2.45;;;;;;;15.79;42.33;100332.59;4880121;29;20025;-72
2021/12/06 11:11:43;;;;;;;13.90;3.25;;;;;;;15.64;42.43;100331.47;4863181;29;20033;-73
2021/12/06 11:14:19;;;;;;;11.15;2.65;;;;;;;15.97;41.60;100320.03;4879996;29;20029;-73
2021/12/06 11:16:49;;;;;;;14.45;3.55;;;;;;;15.88;41.95;100332.41;4880086;29;20029;-72
2021/12/06 11:19:16;;;;;;;9.82;2.42;;;;;;;15.58;42.23;100329.31;4879957;29;20556;-73
2021/12/06 11:21:45;;;;;;;10.18;3.13;;;;;;;15.94;41.46;100322.69;4863036;29;20055;-73
2021/12/06 11:24:19;;;;;;;20.47;4.40;;;;;;;15.58;42.19;100329.31;4879993;29;20434;-73
2021/12/06 11:26:49;;;;;;;12.38;2.60;;;;;;;16.04;41.13;100317.44;4879780;29;20272;-73
2021/12/06 11:29:20;;;;;;;;;;;;;;;16.02;40.98;100330.78;4879946;29;20536;-74
2021/12/06 11:32:17;;;;;;;8.98;2.03;;;;;;;15.37;42.32;100324.06;4863241;29;20323;-73
2021/12/06 11:34:44;;;;;;;9.80;2.33;;;;;;;15.45;41.71;100329.41;4872174;29;20514;-73
2021/12/06 11:37:19;;;;;;;14.45;3.28;;;;;;;15.60;41.29;100321.47;4878803;29;20033;-73
2021/12/06 11:39:48;;;;;;;9.02;2.47;;;;;;;15.60;41.24;100319.53;4862738;29;20472;-73
2021/12/06 11:42:14;;;;;;;9.35;3.20;;;;;;;15.67;40.55;100316.19;4879658;29;20033;-73